createdAt,value
2023-05-16T00:00:06.605Z,5.30
2023-05-16T00:00:38.470Z,5.63
2023-05-16T00:01:10.300Z,5.82
2023-05-16T00:01:43.085Z,4.60
2023-05-16T00:02:16.106Z,6.32
2023-05-16T00:02:49.536Z,5.32
2023-05-16T00:03:22.421Z,5.53
2023-05-16T00:03:54.321Z,5.45
2023-05-16T00:04:26.442Z,5.80
2023-05-16T00:04:59.818Z,5.07
2023-05-16T00:05:31.744Z,4.95
2023-05-16T00:06:03.870Z,7.25
2023-05-16T00:06:37.026Z,5.40
2023-05-16T00:07:08.808Z,5.45
2023-05-16T00:07:42.937Z,5.75
2023-05-16T00:08:15.699Z,6.15
2023-05-16T00:08:48.443Z,5.50
2023-05-16T00:09:20.552Z,5.90
2023-05-16T00:09:53.321Z,5.13
2023-05-16T00:10:26.224Z,5.13
2023-05-16T00:10:58.149Z,5.20
2023-05-16T00:11:30.981Z,5.60
2023-05-16T00:12:02.913Z,6.00
2023-05-16T00:12:36.648Z,5.40
2023-05-16T00:13:09.801Z,6.40
2023-05-16T00:13:42.379Z,5.70
2023-05-16T00:14:15.000Z,5.20
2023-05-16T00:14:47.942Z,4.95
2023-05-16T00:15:23.274Z,5.55
2023-05-16T00:15:56.159Z,5.70
2023-05-16T00:16:29.830Z,5.53
2023-05-16T00:17:04.756Z,6.03
2023-05-16T00:17:36.936Z,5.47
2023-05-16T00:18:10.218Z,5.20
2023-05-16T00:18:45.586Z,5.57
2023-05-16T00:19:17.747Z,5.57
2023-05-16T00:19:49.806Z,5.97
2023-05-16T00:20:24.803Z,5.60
2023-05-16T00:20:56.963Z,6.10
2023-05-16T00:21:28.794Z,7.78
2023-05-16T00:22:01.764Z,5.30
2023-05-16T00:22:33.693Z,6.05
2023-05-16T00:23:05.531Z,5.40
2023-05-16T00:23:38.587Z,6.72
2023-05-16T00:24:10.446Z,5.70
2023-05-16T00:24:42.347Z,6.55
2023-05-16T00:25:15.142Z,5.53
2023-05-16T00:25:47.208Z,6.28
2023-05-16T00:26:19.001Z,6.13
2023-05-16T00:26:51.813Z,5.40
2023-05-16T00:27:23.621Z,5.57
2023-05-16T00:27:55.546Z,6.05
2023-05-16T00:28:28.325Z,5.82
2023-05-16T00:29:00.179Z,5.45
2023-05-16T00:29:32.198Z,6.20
2023-05-16T00:30:06.460Z,5.88
2023-05-16T00:30:38.260Z,5.15
2023-05-16T00:31:10.120Z,6.03
2023-05-16T00:31:43.003Z,5.47
2023-05-16T00:32:15.311Z,6.10
2023-05-16T00:32:47.269Z,5.60
2023-05-16T00:33:21.388Z,6.03
2023-05-16T00:33:53.213Z,5.90
2023-05-16T00:34:25.371Z,6.10
2023-05-16T00:34:58.130Z,6.63
2023-05-16T00:35:30.198Z,5.28
2023-05-16T00:36:02.044Z,5.50
2023-05-16T00:36:35.837Z,6.28
2023-05-16T00:37:07.621Z,5.32
2023-05-16T00:37:39.489Z,6.47
2023-05-16T00:38:12.565Z,5.75
2023-05-16T00:38:44.464Z,5.95
2023-05-16T00:39:18.397Z,5.97
2023-05-16T00:39:50.246Z,5.90
2023-05-16T00:40:22.122Z,6.78
2023-05-16T00:40:53.994Z,5.90
2023-05-16T00:41:26.861Z,6.50
2023-05-16T00:41:58.862Z,6.47
2023-05-16T00:42:31.039Z,6.05
2023-05-16T00:43:03.762Z,6.25
2023-05-16T00:43:35.669Z,6.07
2023-05-16T00:44:07.459Z,5.90
2023-05-16T00:44:40.216Z,7.82
2023-05-16T00:45:12.235Z,5.80
2023-05-16T00:45:44.344Z,6.88
2023-05-16T00:46:17.138Z,6.03
2023-05-16T00:46:49.003Z,6.50
2023-05-16T00:47:21.031Z,5.45
2023-05-16T00:47:53.869Z,6.45
2023-05-16T00:48:27.428Z,7.93
2023-05-16T00:48:59.427Z,6.78
2023-05-16T00:49:32.314Z,5.72
2023-05-16T00:50:05.542Z,5.20
2023-05-16T00:50:37.425Z,6.20
2023-05-16T00:51:10.414Z,6.47
2023-05-16T00:51:42.477Z,6.00
2023-05-16T00:52:14.377Z,5.57
2023-05-16T00:52:47.204Z,6.65
2023-05-16T00:53:19.612Z,7.07
2023-05-16T00:53:52.869Z,6.72
2023-05-16T00:54:28.786Z,7.38
2023-05-16T00:55:01.388Z,7.28
2023-05-16T00:55:34.369Z,6.85
2023-05-16T00:56:07.184Z,6.60
2023-05-16T00:56:40.058Z,6.03
2023-05-16T00:57:12.028Z,5.80
2023-05-16T00:57:43.912Z,6.93
2023-05-16T00:58:17.530Z,5.53
2023-05-16T00:58:50.009Z,5.78
2023-05-16T00:59:22.294Z,6.32
2023-05-16T00:59:55.106Z,5.75
2023-05-16T01:00:28.393Z,6.88
2023-05-16T01:01:03.617Z,6.63
2023-05-16T01:01:36.769Z,6.78
2023-05-16T01:02:09.677Z,6.35
2023-05-16T01:02:42.078Z,6.38
2023-05-16T01:03:14.651Z,5.75
2023-05-16T01:03:49.355Z,6.43
2023-05-16T01:04:21.245Z,6.15
2023-05-16T01:04:53.164Z,5.68
2023-05-16T01:05:26.533Z,6.75
2023-05-16T01:05:58.781Z,6.63
2023-05-16T01:06:31.002Z,5.68
2023-05-16T01:07:03.876Z,7.35
2023-05-16T01:07:35.861Z,6.30
2023-05-16T01:08:07.694Z,5.57
2023-05-16T01:08:40.457Z,7.35
2023-05-16T01:09:12.781Z,5.70
2023-05-16T01:09:44.678Z,8.90
2023-05-16T01:10:17.625Z,6.10
2023-05-16T01:10:54.624Z,6.85
2023-05-16T01:11:33.548Z,6.22
2023-05-16T01:12:14.157Z,6.32
2023-05-16T01:12:57.784Z,7.03
2023-05-16T01:13:41.308Z,7.05
2023-05-16T01:14:28.730Z,6.40
2023-05-16T01:15:07.813Z,5.68
2023-05-16T01:15:47.338Z,6.55
2023-05-16T01:16:26.267Z,6.18
2023-05-16T01:17:08.129Z,6.45
2023-05-16T01:17:57.420Z,6.63
2023-05-16T01:18:36.201Z,6.75
2023-05-16T01:19:27.769Z,7.00
2023-05-16T01:20:12.065Z,5.85
2023-05-16T01:20:49.255Z,5.25
2023-05-16T01:21:36.264Z,5.72
2023-05-16T01:22:17.118Z,5.50
2023-05-16T01:23:02.705Z,6.30
2023-05-16T01:23:48.332Z,5.43
2023-05-16T01:24:27.474Z,5.93
2023-05-16T01:25:13.304Z,6.25
2023-05-16T01:25:58.015Z,6.97
2023-05-16T01:26:32.238Z,6.28
2023-05-16T01:27:06.951Z,5.90
2023-05-16T01:27:40.779Z,6.35
2023-05-16T01:28:14.707Z,5.32
2023-05-16T01:28:47.895Z,6.80
2023-05-16T01:29:19.944Z,6.75
2023-05-16T01:29:55.951Z,6.00
2023-05-16T01:30:33.541Z,6.32
2023-05-16T01:31:06.283Z,6.25
2023-05-16T01:31:38.206Z,6.78
2023-05-16T01:32:10.987Z,7.15
2023-05-16T01:32:43.214Z,6.57
2023-05-16T01:33:15.303Z,7.93
2023-05-16T01:33:48.637Z,6.80
2023-05-16T01:34:20.402Z,6.57
2023-05-16T01:34:52.576Z,7.82
2023-05-16T01:35:25.256Z,6.68
2023-05-16T01:36:04.762Z,6.35
2023-05-16T01:36:42.194Z,6.30
2023-05-16T01:37:29.819Z,6.00
2023-05-16T01:38:11.840Z,5.60
2023-05-16T01:38:54.569Z,7.03
2023-05-16T01:39:37.070Z,6.57
2023-05-16T01:40:12.773Z,6.70
2023-05-16T01:40:51.119Z,6.60
2023-05-16T01:41:28.606Z,6.63
2023-05-16T01:42:05.996Z,7.13
2023-05-16T01:42:43.288Z,6.03
2023-05-16T01:43:21.492Z,7.00
2023-05-16T01:43:59.286Z,6.00
2023-05-16T01:44:35.342Z,7.82
2023-05-16T01:45:15.067Z,6.35
2023-05-16T01:45:54.054Z,6.20
2023-05-16T01:46:31.359Z,6.10
2023-05-16T01:47:08.226Z,5.80
2023-05-16T01:47:42.649Z,6.50
2023-05-16T01:48:19.573Z,6.30
2023-05-16T01:48:54.032Z,6.97
2023-05-16T01:49:31.248Z,7.15
2023-05-16T01:50:09.357Z,7.25
2023-05-16T01:50:49.950Z,6.80
2023-05-16T01:51:24.871Z,6.90
2023-05-16T01:52:01.751Z,6.53
2023-05-16T01:52:38.657Z,9.43
2023-05-16T01:53:15.693Z,6.78
2023-05-16T01:53:50.811Z,7.05
2023-05-16T01:54:25.972Z,6.78
2023-05-16T01:54:59.150Z,6.60
2023-05-16T01:55:40.227Z,7.70
2023-05-16T01:56:16.589Z,7.63
2023-05-16T01:56:53.461Z,5.82
2023-05-16T01:57:29.224Z,7.30
2023-05-16T01:58:04.305Z,6.38
2023-05-16T01:58:37.510Z,7.22
2023-05-16T01:59:11.935Z,7.68
2023-05-16T01:59:45.572Z,7.13
2023-05-16T02:00:17.469Z,6.45
2023-05-16T02:00:50.276Z,7.25
2023-05-16T02:01:22.900Z,7.05
2023-05-16T02:01:56.884Z,7.35
2023-05-16T02:02:29.738Z,6.82
2023-05-16T02:03:01.677Z,7.78
2023-05-16T02:03:34.109Z,7.15
2023-05-16T02:04:07.030Z,7.20
2023-05-16T02:04:38.912Z,7.72
2023-05-16T02:05:10.718Z,7.40
2023-05-16T02:05:43.539Z,7.35
2023-05-16T02:06:15.314Z,6.15
2023-05-16T02:06:47.231Z,7.68
2023-05-16T02:07:20.192Z,7.50
2023-05-16T02:07:52.134Z,7.28
2023-05-16T02:08:24.405Z,6.82
2023-05-16T02:08:57.175Z,6.55
2023-05-16T02:09:28.987Z,7.97
2023-05-16T02:10:00.849Z,6.38
2023-05-16T02:10:33.624Z,7.13
2023-05-16T02:11:05.528Z,8.45
2023-05-16T02:11:37.371Z,8.35
2023-05-16T02:12:10.264Z,7.90
2023-05-16T02:12:43.556Z,7.70
2023-05-16T02:13:15.443Z,7.30
2023-05-16T02:13:47.241Z,8.35
2023-05-16T02:14:20.041Z,6.93
2023-05-16T02:14:52.158Z,7.82
2023-05-16T02:15:23.965Z,7.75
2023-05-16T02:15:56.723Z,7.10
2023-05-16T02:16:30.697Z,8.30
2023-05-16T02:17:02.585Z,7.88
2023-05-16T02:17:35.711Z,7.57
2023-05-16T02:18:07.665Z,8.52
2023-05-16T02:18:39.641Z,7.80
2023-05-16T02:19:11.459Z,8.20
2023-05-16T02:19:44.264Z,7.50
2023-05-16T02:20:16.903Z,7.78
2023-05-16T02:20:48.673Z,7.05
2023-05-16T02:21:21.442Z,8.65
2023-05-16T02:21:53.281Z,7.15
2023-05-16T02:22:25.096Z,6.60
2023-05-16T02:22:57.897Z,7.35
2023-05-16T02:23:29.800Z,7.10
2023-05-16T02:24:01.671Z,8.20
2023-05-16T02:24:34.448Z,7.97
2023-05-16T02:25:07.540Z,8.45
2023-05-16T02:25:39.320Z,7.32
2023-05-16T02:26:12.062Z,7.93
2023-05-16T02:26:43.898Z,7.10
2023-05-16T02:27:15.667Z,7.80
2023-05-16T02:27:50.211Z,7.07
2023-05-16T02:28:21.988Z,7.50
2023-05-16T02:28:54.296Z,6.97
2023-05-16T02:29:27.050Z,8.48
2023-05-16T02:29:58.859Z,7.78
2023-05-16T02:30:30.633Z,8.20
2023-05-16T02:31:04.381Z,7.60
2023-05-16T02:31:36.323Z,7.70
2023-05-16T02:32:08.668Z,7.97
2023-05-16T02:32:44.750Z,9.15
2023-05-16T02:33:16.577Z,7.78
2023-05-16T02:33:48.342Z,8.90
2023-05-16T02:34:21.073Z,7.80
2023-05-16T02:34:53.166Z,8.40
2023-05-16T02:35:25.795Z,7.22
2023-05-16T02:35:58.752Z,8.38
2023-05-16T02:36:30.944Z,7.85
2023-05-16T02:37:02.765Z,8.05
2023-05-16T02:37:35.583Z,7.95
2023-05-16T02:38:07.437Z,7.80
2023-05-16T02:38:39.248Z,8.50
2023-05-16T02:39:12.859Z,8.75
2023-05-16T02:39:44.699Z,7.63
2023-05-16T02:40:16.678Z,8.30
2023-05-16T02:40:48.505Z,7.28
2023-05-16T02:41:22.161Z,8.20
2023-05-16T02:41:53.983Z,9.10
2023-05-16T02:42:27.262Z,8.95
2023-05-16T02:43:01.439Z,9.15
2023-05-16T02:43:33.256Z,7.45
2023-05-16T02:44:05.446Z,7.55
2023-05-16T02:44:38.233Z,7.93
2023-05-16T02:45:10.861Z,8.35
2023-05-16T02:45:42.760Z,7.93
2023-05-16T02:46:23.099Z,8.25
2023-05-16T02:46:54.935Z,8.10
2023-05-16T02:47:26.851Z,7.90
2023-05-16T02:47:59.667Z,7.50
2023-05-16T02:48:31.879Z,8.88
2023-05-16T02:49:03.789Z,8.27
2023-05-16T02:49:35.654Z,8.38
2023-05-16T02:50:09.118Z,7.85
2023-05-16T02:50:40.971Z,8.00
2023-05-16T02:51:12.783Z,8.13
2023-05-16T02:51:45.781Z,8.38
2023-05-16T02:52:17.589Z,7.90
2023-05-16T02:52:49.425Z,8.00
2023-05-16T02:53:21.265Z,8.73
2023-05-16T02:53:56.885Z,8.20
2023-05-16T02:54:28.814Z,7.63
2023-05-16T02:55:20.182Z,7.93
2023-05-16T02:55:53.364Z,7.00
2023-05-16T02:56:26.134Z,7.00
2023-05-16T02:56:57.963Z,7.30
2023-05-16T02:57:30.757Z,7.75
2023-05-16T02:58:03.962Z,8.57
2023-05-16T02:58:35.845Z,7.93
2023-05-16T02:59:08.859Z,7.40
2023-05-16T02:59:40.754Z,7.22
2023-05-16T03:00:15.118Z,7.10
2023-05-16T03:00:49.010Z,7.47
2023-05-16T03:01:20.922Z,8.68
2023-05-16T03:01:52.821Z,8.73
2023-05-16T03:02:26.071Z,8.57
2023-05-16T03:02:58.223Z,7.90
2023-05-16T03:03:30.445Z,7.70
2023-05-16T03:04:03.416Z,7.70
2023-05-16T03:04:35.457Z,7.45
2023-05-16T03:05:07.900Z,8.02
2023-05-16T03:05:40.623Z,7.93
2023-05-16T03:06:12.572Z,7.82
2023-05-16T03:06:44.612Z,9.02
2023-05-16T03:07:17.770Z,8.00
2023-05-16T03:07:49.573Z,8.45
2023-05-16T03:08:21.506Z,7.75
2023-05-16T03:08:54.253Z,9.02
2023-05-16T03:09:26.127Z,8.73
2023-05-16T03:09:57.935Z,7.82
2023-05-16T03:10:29.807Z,8.40
2023-05-16T03:11:02.778Z,9.75
2023-05-16T03:11:36.759Z,8.50
2023-05-16T03:12:08.894Z,8.52
2023-05-16T03:12:41.659Z,10.20
2023-05-16T03:13:14.835Z,7.63
2023-05-16T03:13:46.778Z,8.20
2023-05-16T03:14:19.530Z,8.15
2023-05-16T03:14:51.688Z,8.30
2023-05-16T03:15:23.491Z,8.93
2023-05-16T03:15:56.438Z,6.85
2023-05-16T03:16:28.543Z,8.05
2023-05-16T03:17:00.786Z,8.13
2023-05-16T03:17:33.584Z,8.02
2023-05-16T03:18:05.698Z,8.65
2023-05-16T03:18:37.558Z,7.75
2023-05-16T03:19:10.448Z,9.10
2023-05-16T03:19:42.263Z,8.88
2023-05-16T03:20:14.170Z,7.68
2023-05-16T03:20:47.236Z,8.23
2023-05-16T03:21:19.061Z,8.70
2023-05-16T03:21:50.863Z,8.55
2023-05-16T03:22:23.614Z,8.00
2023-05-16T03:22:55.496Z,8.35
2023-05-16T03:23:27.356Z,8.27
2023-05-16T03:24:00.368Z,9.30
2023-05-16T03:24:32.248Z,7.78
2023-05-16T03:25:04.786Z,8.50
2023-05-16T03:25:37.787Z,9.25
2023-05-16T03:26:09.770Z,9.00
2023-05-16T03:26:42.529Z,9.27
2023-05-16T03:27:14.415Z,9.50
2023-05-16T03:27:46.203Z,9.02
2023-05-16T03:28:20.285Z,9.38
2023-05-16T03:28:52.287Z,8.18
2023-05-16T03:29:25.751Z,8.13
2023-05-16T03:29:57.558Z,9.07
2023-05-16T03:30:29.408Z,8.45
2023-05-16T03:31:01.224Z,8.50
2023-05-16T03:31:34.289Z,8.57
2023-05-16T03:32:06.421Z,9.25
2023-05-16T03:32:38.648Z,8.13
2023-05-16T03:33:11.499Z,8.55
2023-05-16T03:33:43.434Z,8.60
2023-05-16T03:34:15.293Z,8.07
2023-05-16T03:34:48.081Z,9.82
2023-05-16T03:35:19.928Z,8.60
2023-05-16T03:35:52.169Z,8.38
2023-05-16T03:36:25.404Z,9.25
2023-05-16T03:36:57.399Z,8.93
2023-05-16T03:37:29.278Z,9.57
2023-05-16T03:38:01.199Z,10.15
2023-05-16T03:38:34.038Z,9.00
2023-05-16T03:39:05.811Z,11.55
2023-05-16T03:39:37.619Z,11.13
2023-05-16T03:40:11.125Z,9.48
2023-05-16T03:40:43.968Z,8.65
2023-05-16T03:41:15.912Z,9.07
2023-05-16T03:41:47.767Z,10.07
2023-05-16T03:42:20.526Z,8.90
2023-05-16T03:42:52.392Z,9.55
2023-05-16T03:43:25.607Z,10.85
2023-05-16T03:43:58.368Z,10.23
2023-05-16T03:44:30.137Z,10.15
2023-05-16T03:45:01.946Z,10.68
2023-05-16T03:45:34.738Z,12.13
2023-05-16T03:46:06.602Z,9.82
2023-05-16T03:46:38.535Z,9.70
2023-05-16T03:47:11.511Z,10.38
2023-05-16T03:47:43.477Z,8.70
2023-05-16T03:48:15.454Z,10.07
2023-05-16T03:48:47.336Z,9.07
2023-05-16T03:49:20.901Z,8.93
2023-05-16T03:49:53.176Z,10.80
2023-05-16T03:50:25.530Z,8.82
2023-05-16T03:50:58.313Z,9.27
2023-05-16T03:51:30.433Z,10.10
2023-05-16T03:52:02.234Z,9.70
2023-05-16T03:52:35.046Z,10.15
2023-05-16T03:53:06.856Z,10.63
2023-05-16T03:53:38.675Z,8.77
2023-05-16T03:54:11.489Z,9.57
2023-05-16T03:54:43.255Z,10.95
2023-05-16T03:55:15.368Z,10.80
2023-05-16T03:55:48.830Z,10.18
2023-05-16T03:56:21.858Z,11.95
2023-05-16T03:56:53.700Z,11.05
2023-05-16T03:57:26.523Z,10.05
2023-05-16T03:57:58.314Z,10.05
2023-05-16T03:58:31.450Z,10.00
2023-05-16T03:59:04.214Z,10.15
2023-05-16T03:59:36.141Z,10.70
2023-05-16T04:00:08.912Z,15.50
2023-05-16T04:00:41.709Z,11.82
2023-05-16T04:01:13.939Z,12.18
2023-05-16T04:01:45.857Z,12.40
2023-05-16T04:02:19.135Z,13.82
2023-05-16T04:02:51.351Z,12.52
2023-05-16T04:03:28.412Z,12.02
2023-05-16T04:04:01.511Z,10.63
2023-05-16T04:04:33.284Z,9.43
2023-05-16T04:05:06.012Z,11.73
2023-05-16T04:05:38.860Z,9.95
2023-05-16T04:06:10.902Z,10.63
2023-05-16T04:06:42.729Z,11.23
2023-05-16T04:07:15.523Z,11.77
2023-05-16T04:07:47.580Z,11.23
2023-05-16T04:08:19.373Z,10.00
2023-05-16T04:08:52.136Z,11.80
2023-05-16T04:09:23.937Z,11.20
2023-05-16T04:09:55.854Z,10.45
2023-05-16T04:10:29.146Z,10.38
2023-05-16T04:11:00.926Z,11.30
2023-05-16T04:11:34.144Z,11.98
2023-05-16T04:12:07.722Z,11.70
2023-05-16T04:12:39.517Z,14.77
2023-05-16T04:13:11.335Z,13.77
2023-05-16T04:13:45.536Z,11.60
2023-05-16T04:14:17.442Z,10.68
2023-05-16T04:14:49.240Z,11.60
2023-05-16T04:15:22.016Z,11.20
2023-05-16T04:15:54.043Z,11.35
2023-05-16T04:16:25.870Z,10.77
2023-05-16T04:16:58.747Z,11.25
2023-05-16T04:17:30.665Z,11.63
2023-05-16T04:18:03.164Z,10.80
2023-05-16T04:18:36.030Z,10.23
2023-05-16T04:19:07.953Z,12.82
2023-05-16T04:19:39.805Z,10.70
2023-05-16T04:20:13.185Z,11.30
2023-05-16T04:20:47.511Z,10.85
2023-05-16T04:21:20.304Z,11.48
2023-05-16T04:21:52.348Z,12.05
2023-05-16T04:22:24.277Z,12.32
2023-05-16T04:22:57.042Z,12.55
2023-05-16T04:23:28.883Z,11.07
2023-05-16T04:24:01.074Z,11.13
2023-05-16T04:24:33.877Z,11.38
2023-05-16T04:25:06.851Z,10.23
2023-05-16T04:25:38.725Z,11.52
2023-05-16T04:26:11.549Z,12.02
2023-05-16T04:26:43.424Z,10.85
2023-05-16T04:27:15.286Z,11.73
2023-05-16T04:27:48.052Z,12.75
2023-05-16T04:28:19.842Z,11.25
2023-05-16T04:28:52.999Z,11.80
2023-05-16T04:29:25.876Z,11.02
2023-05-16T04:29:59.233Z,12.30
2023-05-16T04:30:32.080Z,10.80
2023-05-16T04:31:04.178Z,10.10
2023-05-16T04:31:37.033Z,12.43
2023-05-16T04:32:10.971Z,11.93
2023-05-16T04:32:43.163Z,12.25
2023-05-16T04:33:15.104Z,11.70
2023-05-16T04:33:47.891Z,11.30
2023-05-16T04:34:19.667Z,11.35
2023-05-16T04:34:54.101Z,12.90
2023-05-16T04:35:28.102Z,10.25
2023-05-16T04:36:00.217Z,12.20
2023-05-16T04:36:32.554Z,12.38
2023-05-16T04:37:05.231Z,10.70
2023-05-16T04:37:38.289Z,11.68
2023-05-16T04:38:10.132Z,10.90
2023-05-16T04:38:42.818Z,11.32
2023-05-16T04:39:15.594Z,12.68
2023-05-16T04:39:47.592Z,11.60
2023-05-16T04:40:19.504Z,11.05
2023-05-16T04:40:52.834Z,11.90
2023-05-16T04:41:25.243Z,12.15
2023-05-16T04:41:59.117Z,11.65
2023-05-16T04:42:31.858Z,12.25
2023-05-16T04:43:03.648Z,11.65
2023-05-16T04:43:35.758Z,11.50
2023-05-16T04:44:08.919Z,11.00
2023-05-16T04:44:42.186Z,11.50
2023-05-16T04:45:14.546Z,11.68
2023-05-16T04:45:47.102Z,13.40
2023-05-16T04:46:20.971Z,11.63
2023-05-16T04:46:53.397Z,12.82
2023-05-16T04:47:25.308Z,10.65
2023-05-16T04:47:58.367Z,11.18
2023-05-16T04:48:30.841Z,10.77
2023-05-16T04:49:02.743Z,12.90
2023-05-16T04:49:35.523Z,12.23
2023-05-16T04:50:08.988Z,11.95
2023-05-16T04:50:40.865Z,12.40
2023-05-16T04:51:13.639Z,11.88
2023-05-16T04:51:45.553Z,12.00
2023-05-16T04:52:17.340Z,12.73
2023-05-16T04:52:50.072Z,13.65
2023-05-16T04:53:21.921Z,12.32
2023-05-16T04:53:53.825Z,12.57
2023-05-16T04:54:26.888Z,13.00
2023-05-16T04:55:00.380Z,11.63
2023-05-16T04:55:32.270Z,11.60
2023-05-16T04:56:05.809Z,13.20
2023-05-16T04:56:37.579Z,10.55
2023-05-16T04:57:09.371Z,11.60
2023-05-16T04:57:42.305Z,11.85
2023-05-16T04:58:14.331Z,12.65
2023-05-16T04:58:46.288Z,12.98
2023-05-16T04:59:21.130Z,11.75
2023-05-16T04:59:52.926Z,12.50
2023-05-16T05:00:26.635Z,12.35
2023-05-16T05:01:33.360Z,13.07
2023-05-16T05:02:07.547Z,11.65
2023-05-16T05:02:39.970Z,13.13
2023-05-16T05:03:11.862Z,12.18
2023-05-16T05:03:47.599Z,12.98
2023-05-16T05:04:20.020Z,11.75
2023-05-16T05:04:52.874Z,11.82
2023-05-16T05:05:24.785Z,11.50
2023-05-16T05:05:56.627Z,14.13
2023-05-16T05:06:29.493Z,12.25
2023-05-16T05:07:01.285Z,11.52
2023-05-16T05:07:33.289Z,13.23
2023-05-16T05:08:07.041Z,11.95
2023-05-16T05:08:38.879Z,14.20
2023-05-16T05:09:10.993Z,13.15
2023-05-16T05:09:43.787Z,13.20
2023-05-16T05:10:15.705Z,13.77
2023-05-16T05:10:47.521Z,14.43
2023-05-16T05:11:20.949Z,13.15
2023-05-16T05:11:52.872Z,14.30
2023-05-16T05:12:25.121Z,13.57
2023-05-16T05:12:58.519Z,13.38
2023-05-16T05:13:30.777Z,12.80
2023-05-16T05:14:03.604Z,13.90
2023-05-16T05:14:37.707Z,14.15
2023-05-16T05:15:09.813Z,12.77
2023-05-16T05:15:41.620Z,11.15
2023-05-16T05:16:14.346Z,13.98
2023-05-16T05:16:46.152Z,13.02
2023-05-16T05:17:18.027Z,12.52
2023-05-16T05:17:50.865Z,13.05
2023-05-16T05:18:22.958Z,14.27
2023-05-16T05:18:54.894Z,12.52
2023-05-16T05:19:27.765Z,11.30
2023-05-16T05:20:01.784Z,14.07
2023-05-16T05:20:35.807Z,12.32
2023-05-16T05:21:07.616Z,14.77
2023-05-16T05:21:40.458Z,12.30
2023-05-16T05:22:12.277Z,12.18
2023-05-16T05:22:44.224Z,12.98
2023-05-16T05:23:16.999Z,13.55
2023-05-16T05:23:49.602Z,13.90
2023-05-16T05:24:21.382Z,11.50
2023-05-16T05:24:54.142Z,13.75
2023-05-16T05:25:26.947Z,11.40
2023-05-16T05:26:00.060Z,13.43
2023-05-16T05:26:31.906Z,13.70
2023-05-16T05:27:03.990Z,14.05
2023-05-16T05:27:36.743Z,13.50
2023-05-16T05:28:08.509Z,12.50
2023-05-16T05:28:43.775Z,12.88
2023-05-16T05:29:20.065Z,13.07
2023-05-16T05:29:54.217Z,12.75
2023-05-16T05:30:25.986Z,13.10
2023-05-16T05:30:58.804Z,12.63
2023-05-16T05:31:30.905Z,12.48
2023-05-16T05:32:02.869Z,15.13
2023-05-16T05:32:35.877Z,13.30
2023-05-16T05:33:07.715Z,12.98
2023-05-16T05:33:39.644Z,13.13
2023-05-16T05:34:12.425Z,14.07
2023-05-16T05:34:44.247Z,12.55
2023-05-16T05:35:16.265Z,12.77
2023-05-16T05:35:49.250Z,12.18
2023-05-16T05:36:21.069Z,13.23
2023-05-16T05:36:52.861Z,13.27
2023-05-16T05:37:25.698Z,13.15
2023-05-16T05:37:57.609Z,14.35
2023-05-16T05:38:29.570Z,13.32
2023-05-16T05:39:01.538Z,15.23
2023-05-16T05:39:34.573Z,13.95
2023-05-16T05:40:07.803Z,14.30
2023-05-16T05:40:39.589Z,12.57
2023-05-16T05:41:12.672Z,13.80
2023-05-16T05:41:44.962Z,16.08
2023-05-16T05:42:16.738Z,14.30
2023-05-16T05:42:49.566Z,14.05
2023-05-16T05:43:21.426Z,12.77
2023-05-16T05:43:54.252Z,14.57
2023-05-16T05:44:26.065Z,14.23
2023-05-16T05:45:00.201Z,13.90
2023-05-16T05:45:32.078Z,12.82
2023-05-16T05:46:04.190Z,13.85
2023-05-16T05:46:37.160Z,14.57
2023-05-16T05:47:09.358Z,19.98
2023-05-16T05:47:41.272Z,12.52
2023-05-16T05:48:14.414Z,12.63
2023-05-16T05:48:46.297Z,13.95
2023-05-16T05:49:18.165Z,14.07
2023-05-16T05:49:51.707Z,12.77
2023-05-16T05:50:23.776Z,14.52
2023-05-16T05:50:55.782Z,14.60
2023-05-16T05:51:28.712Z,13.93
2023-05-16T05:52:00.562Z,13.65
2023-05-16T05:52:33.518Z,14.35
2023-05-16T05:53:05.372Z,13.63
2023-05-16T05:53:37.193Z,14.00
2023-05-16T05:54:10.180Z,14.27
2023-05-16T05:54:42.101Z,12.27
2023-05-16T05:55:14.830Z,12.35
2023-05-16T05:55:46.994Z,14.25
2023-05-16T05:56:18.788Z,13.98
2023-05-16T05:56:51.605Z,15.45
2023-05-16T05:57:23.411Z,14.27
2023-05-16T05:57:55.404Z,14.30
2023-05-16T05:58:28.355Z,13.40
2023-05-16T05:59:00.206Z,13.02
2023-05-16T05:59:32.009Z,14.48
2023-05-16T06:00:07.463Z,14.48
2023-05-16T06:00:39.248Z,13.73
2023-05-16T06:01:12.300Z,15.45
2023-05-16T06:01:44.490Z,14.05
2023-05-16T06:02:16.399Z,13.50
2023-05-16T06:02:49.746Z,13.63
2023-05-16T06:03:21.682Z,13.65
2023-05-16T06:03:54.959Z,14.95
2023-05-16T06:04:26.775Z,13.60
2023-05-16T06:04:58.601Z,13.57
2023-05-16T06:05:31.635Z,12.02
2023-05-16T06:06:04.613Z,13.95
2023-05-16T06:06:37.044Z,13.43
2023-05-16T06:07:09.842Z,15.73
2023-05-16T06:07:41.698Z,13.15
2023-05-16T06:08:13.499Z,14.07
2023-05-16T06:08:49.400Z,13.23
2023-05-16T06:09:21.634Z,13.55
2023-05-16T06:09:53.464Z,12.90
2023-05-16T06:10:26.273Z,14.60
2023-05-16T06:10:58.090Z,14.32
2023-05-16T06:11:30.915Z,13.40
2023-05-16T06:12:04.043Z,14.10
2023-05-16T06:12:35.867Z,14.98
2023-05-16T06:13:08.626Z,14.55
2023-05-16T06:13:40.491Z,14.90
2023-05-16T06:14:12.380Z,14.88
2023-05-16T06:14:45.146Z,14.13
2023-05-16T06:15:18.370Z,14.10
2023-05-16T06:15:50.990Z,14.05
2023-05-16T06:16:26.369Z,14.88
2023-05-16T06:16:58.234Z,13.85
2023-05-16T06:17:31.345Z,14.77
2023-05-16T06:18:03.369Z,14.20
2023-05-16T06:18:35.373Z,13.70
2023-05-16T06:19:08.251Z,14.85
2023-05-16T06:19:40.130Z,15.52
2023-05-16T06:20:12.578Z,15.20
2023-05-16T06:20:45.342Z,13.43
2023-05-16T06:21:17.320Z,16.42
2023-05-16T06:21:50.053Z,13.43
2023-05-16T06:22:21.855Z,15.50
2023-05-16T06:22:53.638Z,13.73
2023-05-16T06:23:26.436Z,13.43
2023-05-16T06:23:58.256Z,17.92
2023-05-16T06:24:30.465Z,15.23
2023-05-16T06:25:03.398Z,13.30
2023-05-16T06:25:35.311Z,15.40
2023-05-16T06:26:08.095Z,14.40
2023-05-16T06:26:39.867Z,12.70
2023-05-16T06:27:11.665Z,15.82
2023-05-16T06:27:44.440Z,13.68
2023-05-16T06:28:16.270Z,13.80
2023-05-16T06:28:49.056Z,15.05
2023-05-16T06:29:20.926Z,14.88
2023-05-16T06:29:52.736Z,16.15
2023-05-16T06:30:26.843Z,15.25
2023-05-16T06:30:58.670Z,14.32
2023-05-16T06:31:31.339Z,13.63
2023-05-16T06:32:04.261Z,15.00
2023-05-16T06:32:36.208Z,15.10
2023-05-16T06:33:08.122Z,15.05
2023-05-16T06:33:40.956Z,14.23
2023-05-16T06:34:12.728Z,13.60
2023-05-16T06:34:44.625Z,15.27
2023-05-16T06:35:17.404Z,14.80
2023-05-16T06:35:49.264Z,14.00
2023-05-16T06:36:21.128Z,14.75
2023-05-16T06:36:53.899Z,14.75
2023-05-16T06:37:26.216Z,16.63
2023-05-16T06:37:58.145Z,16.58
2023-05-16T06:38:31.086Z,15.25
2023-05-16T06:39:03.377Z,13.20
2023-05-16T06:39:36.297Z,14.65
2023-05-16T06:40:08.938Z,14.00
2023-05-16T06:40:40.954Z,13.93
2023-05-16T06:41:13.774Z,14.32
2023-05-16T06:41:45.609Z,15.25
2023-05-16T06:42:19.179Z,13.77
2023-05-16T06:42:50.997Z,15.45
2023-05-16T06:43:23.113Z,15.80
2023-05-16T06:43:55.924Z,14.70
2023-05-16T06:44:27.896Z,14.40
2023-05-16T06:44:59.770Z,13.48
2023-05-16T06:45:33.902Z,13.70
2023-05-16T06:46:05.894Z,14.80
2023-05-16T06:46:38.283Z,18.70
2023-05-16T06:47:11.209Z,15.02
2023-05-16T06:47:43.102Z,16.70
2023-05-16T06:48:16.486Z,14.88
2023-05-16T06:48:48.441Z,14.18
2023-05-16T06:49:20.417Z,17.67
2023-05-16T06:49:53.252Z,13.38
2023-05-16T06:50:25.270Z,14.77
2023-05-16T06:50:57.592Z,15.68
2023-05-16T06:51:30.971Z,13.00
2023-05-16T06:52:03.034Z,14.30
2023-05-16T06:52:34.897Z,14.25
2023-05-16T06:53:07.756Z,14.15
2023-05-16T06:53:39.681Z,14.55
2023-05-16T06:54:11.512Z,15.10
2023-05-16T06:54:44.319Z,14.60
2023-05-16T06:55:16.818Z,15.18
2023-05-16T06:55:49.616Z,14.43
2023-05-16T06:56:21.602Z,13.23
2023-05-16T06:56:53.430Z,14.27
2023-05-16T06:57:26.250Z,13.88
2023-05-16T06:57:58.058Z,13.18
2023-05-16T06:58:29.901Z,15.00
2023-05-16T06:59:02.743Z,13.50
2023-05-16T06:59:35.043Z,14.52
2023-05-16T07:00:09.281Z,13.63
2023-05-16T07:00:43.980Z,14.93
2023-05-16T07:01:16.108Z,14.60
2023-05-16T07:01:49.004Z,13.88
2023-05-16T07:02:21.019Z,13.15
2023-05-16T07:02:53.191Z,15.60
2023-05-16T07:03:26.202Z,15.85
2023-05-16T07:03:58.388Z,15.60
2023-05-16T07:04:30.490Z,14.32
2023-05-16T07:05:03.291Z,14.93
2023-05-16T07:05:35.134Z,15.60
2023-05-16T07:06:08.398Z,15.40
2023-05-16T07:06:40.442Z,16.70
2023-05-16T07:07:13.419Z,17.30
2023-05-16T07:07:46.478Z,16.00
2023-05-16T07:08:18.398Z,16.83
2023-05-16T07:08:51.220Z,16.73
2023-05-16T07:09:23.086Z,16.80
2023-05-16T07:09:55.903Z,15.57
2023-05-16T07:10:27.984Z,14.93
2023-05-16T07:11:00.866Z,15.13
2023-05-16T07:11:32.702Z,14.40
2023-05-16T07:12:05.541Z,14.23
2023-05-16T07:12:38.994Z,13.95
2023-05-16T07:13:10.978Z,14.18
2023-05-16T07:13:42.816Z,14.00